createdAt,value
2023-01-04T00:00:48.034Z,100.00
2023-01-04T00:03:14.664Z,100.00
2023-01-04T00:05:41.313Z,100.00
2023-01-04T00:08:07.842Z,100.00
2023-01-04T00:10:35.379Z,100.00
2023-01-04T00:13:02.067Z,100.00
2023-01-04T00:15:28.679Z,100.00
2023-01-04T00:17:55.284Z,100.00
2023-01-04T00:20:21.766Z,100.00
2023-01-04T00:22:48.256Z,100.00
2023-01-04T00:25:14.822Z,100.00
2023-01-04T00:27:42.168Z,100.00
2023-01-04T00:30:09.373Z,100.00
2023-01-04T00:32:36.584Z,100.00
2023-01-04T00:35:03.094Z,100.00
2023-01-04T00:37:31.039Z,100.00
2023-01-04T00:39:57.515Z,100.00
2023-01-04T00:42:24.013Z,100.00
2023-01-04T00:44:50.507Z,100.00
2023-01-04T00:47:17.050Z,100.00
2023-01-04T00:49:43.610Z,100.00
2023-01-04T00:52:10.218Z,100.00
2023-01-04T00:54:36.765Z,100.00
2023-01-04T00:57:05.152Z,100.00
2023-01-04T00:59:31.682Z,100.00
2023-01-04T01:01:58.410Z,100.00
2023-01-04T01:04:25.374Z,100.00
2023-01-04T01:06:52.605Z,100.00
2023-01-04T01:09:22.583Z,100.00
2023-01-04T01:11:49.442Z,100.00
2023-01-04T01:14:19.032Z,100.00
2023-01-04T01:17:01.649Z,100.00
2023-01-04T01:19:29.672Z,100.00
2023-01-04T01:21:57.766Z,100.00
2023-01-04T01:24:24.738Z,100.00
2023-01-04T01:26:51.291Z,100.00
2023-01-04T01:29:17.862Z,100.00
2023-01-04T01:31:44.477Z,100.00
2023-01-04T01:34:11.020Z,100.00
2023-01-04T01:36:37.596Z,100.00
2023-01-04T01:39:05.660Z,100.00
2023-01-04T01:41:33.812Z,100.00
2023-01-04T01:44:24.397Z,100.00
2023-01-04T01:46:53.995Z,100.00
2023-01-04T01:49:23.107Z,100.00
2023-01-04T01:51:50.036Z,100.00
2023-01-04T01:54:22.604Z,100.00
2023-01-04T01:56:51.307Z,100.00
2023-01-04T01:59:19.283Z,100.00
2023-01-04T02:01:46.000Z,100.00
2023-01-04T02:04:14.528Z,100.00
2023-01-04T02:06:46.040Z,100.00
2023-01-04T02:09:13.340Z,100.00
2023-01-04T02:11:39.875Z,100.00
2023-01-04T02:14:26.795Z,100.00
2023-01-04T02:16:56.243Z,100.00
2023-01-04T02:19:54.281Z,100.00
2023-01-04T02:22:53.754Z,100.00
2023-01-04T02:25:54.368Z,100.00
2023-01-04T02:28:36.134Z,100.00
2023-01-04T02:31:21.540Z,100.00
2023-01-04T02:34:10.776Z,100.00
2023-01-04T02:37:08.732Z,100.00
2023-01-04T02:39:57.414Z,100.00
2023-01-04T02:43:13.794Z,100.00
2023-01-04T02:45:49.905Z,100.00
2023-01-04T02:48:51.787Z,100.00
2023-01-04T02:51:28.542Z,100.00
2023-01-04T02:53:56.882Z,100.00
2023-01-04T02:57:05.246Z,100.00
2023-01-04T02:59:32.527Z,100.00
2023-01-04T03:02:47.390Z,100.00
2023-01-04T03:05:45.189Z,100.00
2023-01-04T03:08:33.996Z,100.00
2023-01-04T03:11:27.809Z,100.00
2023-01-04T03:14:00.348Z,100.00
2023-01-04T03:16:28.929Z,100.00
2023-01-04T03:18:58.389Z,100.00
2023-01-04T03:21:28.034Z,100.00
2023-01-04T03:24:17.620Z,100.00
2023-01-04T03:27:10.137Z,100.00
2023-01-04T03:29:57.525Z,100.00
2023-01-04T03:32:51.473Z,100.00
2023-01-04T03:35:23.584Z,100.00
2023-01-04T03:38:18.193Z,100.00
2023-01-04T03:41:14.597Z,100.00
2023-01-04T03:44:14.333Z,100.00
2023-01-04T03:47:08.426Z,100.00
2023-01-04T03:49:47.327Z,100.00
2023-01-04T03:52:16.237Z,100.00
2023-01-04T03:54:48.897Z,100.00
2023-01-04T03:57:16.631Z,100.00
2023-01-04T03:59:51.937Z,100.00
2023-01-04T04:02:23.843Z,100.00
2023-01-04T04:05:09.339Z,100.00
2023-01-04T04:07:54.604Z,100.00
2023-01-04T04:10:21.145Z,100.00
2023-01-04T04:12:48.773Z,100.00
2023-01-04T04:15:15.727Z,100.00
2023-01-04T04:17:42.255Z,100.00
2023-01-04T04:20:09.422Z,100.00
2023-01-04T04:22:36.003Z,100.00
2023-01-04T04:25:02.540Z,100.00
2023-01-04T04:27:29.076Z,100.00
2023-01-04T04:29:55.615Z,100.00
2023-01-04T04:32:23.235Z,100.00
2023-01-04T04:34:49.789Z,100.00
2023-01-04T04:37:16.260Z,100.00
2023-01-04T04:39:42.754Z,100.00
2023-01-04T04:42:09.509Z,100.00
2023-01-04T04:44:36.110Z,100.00
2023-01-04T04:47:02.800Z,100.00
2023-01-04T04:49:30.113Z,100.00
2023-01-04T04:51:56.717Z,100.00
2023-01-04T04:54:23.296Z,100.00
2023-01-04T04:56:50.419Z,100.00
2023-01-04T04:59:17.061Z,100.00
2023-01-04T05:01:43.644Z,100.00
2023-01-04T05:04:16.210Z,100.00
2023-01-04T05:06:43.927Z,100.00
2023-01-04T05:09:11.453Z,100.00
2023-01-04T05:11:56.221Z,100.00
2023-01-04T05:14:22.697Z,100.00
2023-01-04T05:16:49.371Z,100.00
2023-01-04T05:19:16.023Z,100.00
2023-01-04T05:21:42.496Z,100.00
2023-01-04T05:24:11.631Z,100.00
2023-01-04T05:26:38.959Z,100.00
2023-01-04T05:29:05.700Z,100.00
2023-01-04T05:31:32.311Z,100.00
2023-01-04T05:33:58.808Z,100.00
2023-01-04T05:36:25.357Z,100.00
2023-01-04T05:38:51.952Z,100.00
2023-01-04T05:41:44.409Z,100.00
2023-01-04T05:44:10.884Z,100.00
2023-01-04T05:46:37.457Z,100.00
2023-01-04T05:49:04.023Z,100.00
2023-01-04T05:51:30.577Z,100.00
2023-01-04T05:53:57.103Z,100.00
2023-01-04T05:56:23.628Z,100.00
2023-01-04T05:58:50.117Z,100.00
2023-01-04T06:01:16.681Z,100.00
2023-01-04T06:03:43.471Z,100.00
2023-01-04T06:06:10.082Z,100.00
2023-01-04T06:08:36.585Z,100.00
2023-01-04T06:11:03.138Z,100.00
2023-01-04T06:13:29.744Z,100.00
2023-01-04T06:15:56.212Z,100.00
2023-01-04T06:18:22.726Z,100.00
2023-01-04T06:20:51.301Z,100.00
2023-01-04T06:23:17.821Z,100.00
2023-01-04T06:25:44.342Z,100.00
2023-01-04T06:28:10.860Z,100.00
2023-01-04T06:30:37.455Z,100.00
2023-01-04T06:33:03.952Z,100.00
2023-01-04T06:35:30.456Z,100.00
2023-01-04T06:37:56.924Z,100.00
2023-01-04T06:40:23.435Z,100.00
2023-01-04T06:42:49.971Z,100.00
2023-01-04T06:45:16.855Z,100.00
2023-01-04T06:47:43.819Z,100.00
2023-01-04T06:50:11.360Z,100.00
2023-01-04T06:52:37.926Z,100.00
2023-01-04T06:55:06.455Z,100.00
2023-01-04T06:57:33.047Z,100.00
2023-01-04T06:59:59.661Z,100.00
2023-01-04T07:02:26.928Z,100.00
2023-01-04T07:04:53.555Z,100.00
2023-01-04T07:07:20.176Z,100.00
2023-01-04T07:09:46.696Z,100.00
2023-01-04T07:12:13.252Z,100.00
2023-01-04T07:14:39.809Z,100.00
2023-01-04T07:17:06.289Z,100.00
2023-01-04T07:19:32.988Z,100.00
2023-01-04T07:22:01.632Z,100.00
2023-01-04T07:24:30.629Z,100.00
2023-01-04T07:26:58.967Z,100.00
2023-01-04T07:29:25.487Z,100.00
2023-01-04T07:31:52.655Z,100.00
2023-01-04T07:34:21.142Z,100.00
2023-01-04T07:36:48.390Z,100.00
2023-01-04T07:39:16.267Z,100.00
2023-01-04T07:41:43.125Z,100.00
2023-01-04T07:44:11.011Z,100.00
2023-01-04T07:46:38.329Z,100.00
2023-01-04T07:49:08.077Z,100.00
2023-01-04T07:51:36.801Z,100.00
2023-01-04T07:54:03.510Z,100.00
2023-01-04T07:56:30.216Z,100.00
2023-01-04T07:58:58.897Z,100.00
2023-01-04T08:01:27.409Z,100.00
2023-01-04T08:03:54.064Z,100.00
2023-01-04T08:06:21.652Z,100.00
2023-01-04T08:08:48.233Z,100.00
2023-01-04T08:11:19.400Z,100.00
2023-01-04T08:13:46.115Z,100.00
2023-01-04T08:16:20.902Z,100.00
2023-01-04T08:18:48.236Z,100.00
2023-01-04T08:21:14.847Z,100.00
2023-01-04T08:23:41.333Z,100.00
2023-01-04T08:26:10.472Z,100.00
2023-01-04T08:28:37.182Z,100.00
2023-01-04T08:31:06.284Z,100.00
2023-01-04T08:33:32.934Z,100.00
2023-01-04T08:36:26.583Z,100.00
2023-01-04T08:39:01.556Z,100.00
2023-01-04T08:44:20.403Z,100.00
2023-01-04T08:46:47.762Z,100.00
2023-01-04T08:49:14.727Z,100.00
2023-01-04T08:51:41.983Z,100.00
2023-01-04T08:54:09.509Z,100.00
2023-01-04T08:56:36.140Z,100.00
2023-01-04T08:59:03.028Z,100.00
2023-01-04T09:01:31.601Z,100.00
2023-01-04T09:03:58.346Z,100.00
2023-01-04T09:06:25.056Z,100.00
2023-01-04T09:08:51.615Z,100.00
2023-01-04T09:11:20.957Z,100.00
2023-01-04T09:13:48.178Z,100.00
2023-01-04T09:16:17.858Z,100.00
2023-01-04T09:18:45.273Z,100.00
2023-01-04T09:21:17.575Z,100.00
2023-01-04T09:23:44.825Z,100.00
2023-01-04T09:26:15.407Z,100.00
2023-01-04T09:28:43.281Z,100.00
2023-01-04T09:31:12.681Z,100.00
2023-01-04T09:34:12.276Z,100.00
2023-01-04T09:36:25.821Z,100.00
2023-01-04T09:38:53.045Z,100.00
2023-01-04T09:41:26.826Z,100.00
2023-01-04T09:43:56.329Z,100.00
2023-01-04T09:46:38.854Z,100.00
2023-01-04T09:49:18.045Z,100.00
2023-01-04T09:51:56.039Z,100.00
2023-01-04T09:56:59.458Z,100.00
2023-01-04T09:59:31.527Z,100.00
2023-01-04T10:02:44.575Z,100.00
2023-01-04T10:05:19.486Z,100.00
2023-01-04T10:07:45.974Z,100.00
2023-01-04T10:10:19.930Z,100.00
2023-01-04T10:13:10.488Z,100.00
2023-01-04T10:15:48.507Z,100.00
2023-01-04T10:19:36.773Z,100.00
2023-01-04T10:21:34.077Z,100.00
2023-01-04T10:24:45.798Z,100.00
2023-01-04T10:27:42.712Z,100.00
2023-01-04T10:30:28.280Z,100.00
2023-01-04T10:33:12.818Z,100.00
2023-01-04T10:35:43.522Z,100.00
2023-01-04T10:38:22.737Z,100.00
2023-01-04T10:40:50.302Z,100.00
2023-01-04T10:44:11.886Z,100.00
2023-01-04T10:47:00.506Z,100.00
2023-01-04T10:49:43.221Z,100.00
2023-01-04T10:52:53.129Z,100.00
2023-01-04T10:56:23.726Z,100.00
2023-01-04T10:59:13.950Z,100.00
2023-01-04T11:02:06.816Z,100.00
2023-01-04T11:04:42.943Z,100.00
2023-01-04T11:07:37.026Z,100.00
2023-01-04T11:10:12.248Z,100.00
2023-01-04T11:12:38.822Z,100.00
2023-01-04T11:15:05.712Z,100.00
2023-01-04T11:17:32.928Z,100.00
2023-01-04T11:19:59.478Z,100.00
2023-01-04T11:22:34.233Z,100.00
2023-01-04T11:28:02.689Z,100.00
2023-01-04T11:30:38.302Z,100.00
2023-01-04T11:33:19.558Z,100.00
2023-01-04T11:35:58.973Z,100.00
2023-01-04T11:38:30.267Z,100.00
2023-01-04T11:41:06.023Z,100.00
2023-01-04T11:43:34.677Z,100.00
2023-01-04T11:46:05.388Z,100.00
2023-01-04T11:48:50.774Z,100.00
2023-01-04T11:51:29.594Z,100.00
2023-01-04T11:54:04.951Z,100.00
2023-01-04T11:56:37.027Z,100.00
2023-01-04T11:59:24.538Z,100.00
2023-01-04T12:01:52.992Z,100.00
2023-01-04T12:04:26.306Z,100.00
2023-01-04T12:07:00.291Z,100.00
2023-01-04T12:09:29.261Z,100.00
2023-01-04T12:11:58.518Z,100.00
2023-01-04T12:14:35.876Z,100.00
2023-01-04T12:17:05.263Z,100.00
2023-01-04T12:19:31.889Z,100.00
2023-01-04T12:22:00.774Z,100.00
2023-01-04T12:24:32.534Z,100.00
2023-01-04T12:27:00.129Z,100.00
2023-01-04T12:29:41.539Z,100.00
2023-01-04T12:32:07.967Z,100.00
2023-01-04T12:34:34.405Z,100.00
2023-01-04T12:37:05.967Z,100.00
2023-01-04T12:39:38.904Z,100.00
2023-01-04T12:42:11.887Z,100.00
2023-01-04T12:44:46.736Z,100.00
2023-01-04T12:47:34.665Z,100.00
2023-01-04T12:50:02.986Z,100.00
2023-01-04T12:52:34.865Z,100.00
2023-01-04T12:55:24.351Z,100.00
2023-01-04T12:57:51.070Z,100.00
2023-01-04T13:00:17.899Z,100.00
2023-01-04T13:03:08.325Z,100.00
2023-01-04T13:05:55.896Z,100.00
2023-01-04T13:08:23.717Z,100.00
2023-01-04T13:10:52.110Z,100.00
2023-01-04T13:13:30.609Z,100.00
2023-01-04T13:16:20.366Z,100.00
2023-01-04T13:18:50.503Z,100.00
2023-01-04T13:21:28.627Z,100.00
2023-01-04T13:23:58.420Z,100.00
2023-01-04T13:26:40.589Z,100.00
2023-01-04T13:29:08.863Z,100.00
2023-01-04T13:31:58.470Z,100.00
2023-01-04T13:34:34.189Z,100.00
2023-01-04T13:37:03.689Z,100.00
2023-01-04T13:39:30.392Z,100.00
2023-01-04T13:41:57.891Z,100.00
2023-01-04T13:47:35.569Z,100.00
2023-01-04T13:50:02.781Z,100.00
2023-01-04T13:52:55.179Z,100.00
2023-01-04T13:55:37.552Z,100.00
2023-01-04T13:58:17.646Z,100.00
2023-01-04T14:00:50.011Z,100.00
2023-01-04T14:03:42.508Z,100.00
2023-01-04T14:06:16.251Z,100.00
2023-01-04T14:08:50.083Z,100.00
2023-01-04T14:11:48.224Z,100.00
2023-01-04T14:14:20.188Z,100.00
2023-01-04T14:16:47.523Z,100.00
2023-01-04T14:19:43.083Z,100.00
2023-01-04T14:22:28.664Z,100.00
2023-01-04T14:25:08.984Z,100.00
2023-01-04T14:27:41.461Z,100.00
2023-01-04T14:30:23.168Z,100.00
2023-01-04T14:32:56.408Z,100.00
2023-01-04T14:35:23.256Z,100.00
2023-01-04T14:37:50.159Z,100.00
2023-01-04T14:40:27.022Z,100.00
2023-01-04T14:42:54.651Z,100.00
2023-01-04T14:45:21.234Z,100.00
2023-01-04T14:47:47.804Z,100.00
2023-01-04T14:50:15.200Z,100.00
2023-01-04T14:52:41.710Z,100.00
2023-01-04T14:55:12.833Z,100.00
2023-01-04T14:57:43.240Z,100.00
2023-01-04T15:00:18.869Z,100.00
2023-01-04T15:02:50.212Z,100.00
2023-01-04T15:05:20.104Z,100.00
2023-01-04T15:07:46.918Z,100.00
2023-01-04T15:10:23.158Z,100.00
2023-01-04T15:12:49.908Z,100.00
2023-01-04T15:15:16.509Z,100.00
2023-01-04T15:17:43.086Z,100.00
2023-01-04T15:20:10.227Z,100.00
2023-01-04T15:22:37.557Z,100.00
2023-01-04T15:25:04.418Z,100.00
2023-01-04T15:27:33.502Z,100.00
2023-01-04T15:30:02.803Z,100.00
2023-01-04T15:32:31.353Z,100.00
2023-01-04T15:34:57.887Z,100.00
2023-01-04T15:37:24.352Z,100.00
2023-01-04T15:39:53.190Z,100.00
2023-01-04T15:42:41.892Z,100.00
2023-01-04T15:45:08.718Z,100.00
2023-01-04T15:47:35.351Z,100.00
2023-01-04T15:50:01.897Z,100.00
2023-01-04T15:52:28.388Z,100.00
2023-01-04T15:54:54.911Z,100.00
2023-01-04T15:57:21.476Z,100.00
2023-01-04T15:59:48.769Z,100.00
2023-01-04T16:02:15.563Z,100.00
2023-01-04T16:04:42.270Z,100.00
2023-01-04T16:07:08.740Z,100.00
2023-01-04T16:09:36.858Z,100.00
2023-01-04T16:12:23.362Z,100.00
2023-01-04T16:14:50.001Z,100.00
2023-01-04T16:17:16.486Z,100.00
2023-01-04T16:19:43.025Z,100.00
2023-01-04T16:22:09.645Z,100.00
2023-01-04T16:27:22.644Z,100.00
2023-01-04T16:29:52.689Z,100.00
2023-01-04T16:32:19.721Z,100.00
2023-01-04T16:34:46.214Z,100.00
2023-01-04T16:37:12.672Z,100.00
2023-01-04T16:42:25.905Z,100.00
2023-01-04T16:44:52.398Z,100.00
2023-01-04T16:47:19.071Z,100.00
2023-01-04T16:49:50.773Z,100.00
2023-01-04T16:52:17.351Z,100.00
2023-01-04T16:54:43.892Z,100.00
2023-01-04T16:57:10.422Z,100.00
2023-01-04T16:59:36.906Z,100.00
2023-01-04T17:02:03.529Z,100.00
2023-01-04T17:04:30.135Z,100.00
2023-01-04T17:06:58.172Z,100.00
2023-01-04T17:09:24.796Z,100.00
2023-01-04T17:14:44.238Z,100.00
2023-01-04T17:17:10.796Z,100.00
2023-01-04T17:19:37.304Z,100.00
2023-01-04T17:22:03.801Z,100.00
2023-01-04T17:24:30.269Z,99.39
2023-01-04T17:26:56.803Z,99.26
2023-01-04T17:29:23.338Z,99.16
2023-01-04T17:31:50.010Z,99.20
2023-01-04T17:34:23.276Z,99.03
2023-01-04T17:36:50.379Z,98.53
2023-01-04T17:39:16.925Z,98.22
2023-01-04T17:41:43.542Z,98.56
2023-01-04T17:44:10.702Z,98.65
2023-01-04T17:46:37.937Z,97.75
2023-01-04T17:49:25.491Z,98.35
2023-01-04T17:51:55.239Z,98.37
2023-01-04T17:54:22.935Z,97.89
2023-01-04T17:56:49.464Z,98.07
2023-01-04T17:59:16.026Z,97.81
2023-01-04T18:01:42.763Z,97.50
2023-01-04T18:04:09.466Z,97.05
2023-01-04T18:06:36.982Z,97.44
2023-01-04T18:09:06.520Z,97.73
2023-01-04T18:11:33.843Z,97.23
2023-01-04T18:14:01.793Z,97.37
2023-01-04T18:16:31.039Z,97.54
2023-01-04T18:18:59.383Z,96.79
2023-01-04T18:21:30.299Z,97.05
2023-01-04T18:29:32.459Z,96.12
2023-01-04T18:31:59.012Z,95.05
2023-01-04T18:34:28.745Z,95.67
2023-01-04T18:36:55.353Z,95.88
2023-01-04T18:39:22.577Z,95.89
2023-01-04T18:41:49.134Z,95.30
2023-01-04T18:44:32.635Z,95.32
2023-01-04T18:47:00.766Z,95.14
2023-01-04T18:49:27.288Z,95.11
2023-01-04T18:51:53.823Z,95.01
2023-01-04T18:54:21.486Z,94.64
2023-01-04T18:56:48.280Z,94.46
2023-01-04T18:59:17.301Z,94.09
2023-01-04T19:01:45.298Z,93.73
2023-01-04T19:04:12.594Z,93.79
2023-01-04T19:06:40.208Z,93.88
2023-01-04T19:09:07.426Z,93.72
2023-01-04T19:11:35.066Z,93.37
2023-01-04T19:14:02.338Z,93.74
2023-01-04T19:16:31.977Z,94.06
2023-01-04T19:18:59.983Z,93.66
2023-01-04T19:21:27.506Z,93.18
2023-01-04T19:23:54.356Z,93.53
2023-01-04T19:26:21.985Z,92.89
2023-01-04T19:28:49.373Z,92.99
2023-01-04T19:31:17.559Z,93.54
2023-01-04T19:33:44.801Z,92.83
2023-01-04T19:36:14.037Z,92.87
2023-01-04T19:38:40.846Z,92.08
2023-01-04T19:41:08.954Z,91.92
2023-01-04T19:43:35.755Z,92.23
2023-01-04T19:46:02.380Z,91.94
2023-01-04T19:48:30.831Z,91.42
2023-01-04T19:51:07.745Z,91.48
2023-01-04T19:53:34.346Z,90.52
2023-01-04T19:56:01.036Z,90.22
2023-01-04T19:58:27.582Z,89.99
2023-01-04T20:00:55.273Z,90.76
2023-01-04T20:03:23.547Z,90.13
2023-01-04T20:05:50.340Z,89.48
2023-01-04T20:08:17.302Z,90.10
2023-01-04T20:10:43.813Z,89.62
2023-01-04T20:13:10.339Z,89.94
2023-01-04T20:15:40.200Z,89.50
2023-01-04T20:18:11.922Z,89.67
2023-01-04T20:20:44.501Z,89.72
2023-01-04T20:23:11.913Z,88.70
2023-01-04T20:25:40.674Z,89.69
2023-01-04T20:28:07.263Z,88.80
2023-01-04T20:30:34.170Z,88.22
2023-01-04T20:33:00.696Z,88.26
2023-01-04T20:35:27.540Z,87.80
2023-01-04T20:37:56.661Z,88.10
2023-01-04T20:40:27.275Z,87.83
2023-01-04T20:43:12.856Z,86.79
2023-01-04T20:45:46.660Z,87.35
2023-01-04T20:48:14.690Z,86.67
2023-01-04T20:50:41.733Z,86.45
2023-01-04T20:53:08.882Z,86.75
2023-01-04T20:55:41.062Z,86.81
2023-01-04T20:58:08.964Z,86.95
2023-01-04T21:00:36.977Z,86.29
2023-01-04T21:03:05.319Z,86.48
2023-01-04T21:05:36.846Z,86.87
2023-01-04T21:08:03.532Z,86.85
2023-01-04T21:10:30.092Z,86.16
2023-01-04T21:12:56.612Z,86.59
2023-01-04T21:15:23.103Z,86.51
2023-01-04T21:17:49.806Z,86.58
2023-01-04T21:20:16.346Z,86.36
2023-01-04T21:22:42.902Z,86.63
2023-01-04T21:25:09.831Z,86.97
2023-01-04T21:27:36.370Z,87.27
2023-01-04T21:30:03.405Z,87.13
2023-01-04T21:32:30.481Z,87.68
2023-01-04T21:34:57.024Z,87.44
2023-01-04T21:37:24.735Z,87.42
2023-01-04T21:39:51.454Z,87.19
2023-01-04T21:42:18.015Z,87.77
2023-01-04T21:44:44.570Z,87.87
2023-01-04T21:47:11.062Z,88.08
2023-01-04T21:49:43.451Z,88.28
2023-01-04T21:52:10.971Z,88.12
2023-01-04T21:54:38.164Z,88.60
2023-01-04T21:57:07.684Z,87.38
2023-01-04T21:59:35.137Z,87.58
2023-01-04T22:02:01.760Z,87.58
2023-01-04T22:04:28.685Z,87.88
2023-01-04T22:06:55.196Z,88.16
2023-01-04T22:09:21.768Z,88.62
2023-01-04T22:11:49.978Z,88.31
2023-01-04T22:14:17.630Z,88.73
2023-01-04T22:16:44.310Z,88.87
2023-01-04T22:19:12.600Z,89.57
2023-01-04T22:21:39.378Z,89.00
2023-01-04T22:24:06.644Z,89.43
2023-01-04T22:26:34.183Z,89.80
2023-01-04T22:29:01.339Z,89.98
2023-01-04T22:31:28.082Z,90.45
2023-01-04T22:33:54.651Z,90.62
2023-01-04T22:36:23.420Z,90.85
2023-01-04T22:38:52.524Z,91.10
2023-01-04T22:41:21.424Z,91.63
2023-01-04T22:43:53.260Z,91.72
2023-01-04T22:46:19.765Z,91.96
2023-01-04T22:48:46.277Z,91.57
2023-01-04T22:51:15.627Z,91.85
2023-01-04T22:53:42.424Z,92.02
2023-01-04T22:56:20.160Z,92.34
2023-01-04T22:58:53.029Z,92.16
2023-01-04T23:01:24.957Z,92.14
2023-01-04T23:03:52.195Z,92.29
2023-01-04T23:06:19.854Z,92.43
2023-01-04T23:08:46.481Z,92.38
2023-01-04T23:11:16.142Z,92.35
2023-01-04T23:13:43.636Z,92.51
2023-01-04T23:16:13.725Z,92.42
2023-01-04T23:18:40.517Z,92.60
2023-01-04T23:21:07.936Z,92.38
2023-01-04T23:23:34.796Z,92.17
2023-01-04T23:26:12.616Z,92.41
2023-01-04T23:28:39.364Z,92.66
2023-01-04T23:31:09.825Z,92.48
2023-01-04T23:33:37.188Z,92.29
2023-01-04T23:36:12.484Z,92.34
2023-01-04T23:38:40.563Z,92.32
2023-01-04T23:41:07.909Z,92.09
2023-01-04T23:43:35.836Z,92.58
2023-01-04T23:46:20.458Z,92.43
2023-01-04T23:48:46.919Z,91.83
2023-01-04T23:51:13.524Z,91.68
2023-01-04T23:53:40.105Z,92.00
2023-01-04T23:56:11.819Z,91.95
2023-01-04T23:58:38.337Z,91.59
